createdAt,value
2023-03-27T00:00:34.302Z,96389.84
2023-03-27T00:05:36.574Z,96396.44
2023-03-27T00:10:39.223Z,96401.66
2023-03-27T00:15:40.996Z,96398.09
2023-03-27T00:20:43.661Z,96412.56
2023-03-27T00:25:51.360Z,96423.56
2023-03-27T00:30:55.825Z,96426.13
2023-03-27T00:35:57.935Z,96425.28
2023-03-27T00:41:00.622Z,96438.44
2023-03-27T00:46:17.820Z,96452.59
2023-03-27T00:51:24.209Z,96462.16
2023-03-27T00:56:26.466Z,96473.03
2023-03-27T01:01:30.357Z,96491.88
2023-03-27T01:06:32.997Z,96498.31
2023-03-27T01:11:49.756Z,96513.56
2023-03-27T01:17:19.254Z,96531.38
2023-03-27T01:22:54.925Z,96539.44
2023-03-27T01:28:18.602Z,96565.63
2023-03-27T01:34:04.862Z,96568.84
2023-03-27T01:39:14.529Z,96595.63
2023-03-27T01:44:43.525Z,96614.03
2023-03-27T01:50:06.544Z,96620.91
2023-03-27T01:55:13.924Z,96639.34
2023-03-27T02:00:22.274Z,96643.63
2023-03-27T02:05:35.599Z,96651.41
2023-03-27T02:10:43.747Z,96651.75
2023-03-27T02:15:50.575Z,96663.03
2023-03-27T02:20:52.774Z,96678.88
2023-03-27T02:25:55.124Z,96699.53
2023-03-27T02:31:34.326Z,96711.47
2023-03-27T02:36:44.556Z,96721.31
2023-03-27T02:42:01.889Z,96733.94
2023-03-27T02:47:31.490Z,96739.97
2023-03-27T02:52:39.144Z,96749.81
2023-03-27T02:57:52.325Z,96768.38
2023-03-27T03:03:27.921Z,96791.28
2023-03-27T03:08:39.093Z,96792.03
2023-03-27T03:13:43.296Z,96803.56
2023-03-27T03:18:44.968Z,96812.78
2023-03-27T03:23:57.494Z,96829.75
2023-03-27T03:29:01.818Z,96845.16
2023-03-27T03:34:07.893Z,96841.81
2023-03-27T03:39:09.824Z,96839.88
2023-03-27T03:44:11.461Z,96857.94
2023-03-27T03:49:14.173Z,96873.56
2023-03-27T03:54:15.817Z,96873.56
2023-03-27T03:59:18.472Z,96896.22
2023-03-27T04:04:52.153Z,96905.25
2023-03-27T04:09:53.890Z,96918.72
2023-03-27T04:15:01.555Z,96921.28
2023-03-27T04:20:26.401Z,96938.34
2023-03-27T04:25:29.892Z,96954.66
2023-03-27T04:30:33.006Z,96970.81
2023-03-27T04:36:05.394Z,96979.28
2023-03-27T04:41:50.185Z,96988.75
2023-03-27T04:46:51.973Z,97001.28
2023-03-27T04:51:53.786Z,97007.25
2023-03-27T04:56:56.722Z,97013.19
2023-03-27T05:02:00.052Z,97020.88
2023-03-27T05:07:12.130Z,97031.53
2023-03-27T05:12:13.864Z,97043.41
2023-03-27T05:17:28.223Z,97050.56
2023-03-27T05:22:30.076Z,97053.13
2023-03-27T05:27:48.977Z,97062.69
2023-03-27T05:32:52.814Z,97067.94
2023-03-27T05:38:04.221Z,97082.09
2023-03-27T05:43:10.962Z,97085.31
2023-03-27T05:48:13.458Z,97093.41
2023-03-27T05:53:16.810Z,97095.97
2023-03-27T05:58:33.596Z,97114.59
2023-03-27T06:03:38.331Z,97108.50
2023-03-27T06:08:46.610Z,97119.66
2023-03-27T06:13:48.767Z,97121.56
2023-03-27T06:18:54.573Z,97146.03
2023-03-27T06:23:56.411Z,97160.38
2023-03-27T06:28:58.394Z,97164.81
2023-03-27T06:34:02.159Z,97177.50
2023-03-27T06:39:16.343Z,97188.19
2023-03-27T06:44:23.899Z,97194.28
2023-03-27T06:49:38.587Z,97209.25
2023-03-27T06:54:47.057Z,97214.13
2023-03-27T06:59:49.212Z,97224.53
2023-03-27T07:05:04.358Z,97224.28
2023-03-27T07:10:16.822Z,97238.75
2023-03-27T07:15:19.302Z,97250.38
2023-03-27T07:20:22.624Z,97259.97
2023-03-27T07:25:25.380Z,97265.34
2023-03-27T07:30:30.631Z,97282.25
2023-03-27T07:35:33.503Z,97282.78
2023-03-27T07:40:55.058Z,97293.94
2023-03-27T07:46:17.064Z,97303.16
2023-03-27T07:51:18.778Z,97320.63
2023-03-27T07:56:22.205Z,97324.03
2023-03-27T08:01:34.119Z,97321.94
2023-03-27T08:06:36.086Z,97329.81
2023-03-27T08:11:47.335Z,97329.94
2023-03-27T08:16:50.159Z,97331.38
2023-03-27T08:21:51.977Z,97356.56
2023-03-27T08:26:53.679Z,97357.06
2023-03-27T08:31:55.432Z,97356.78
2023-03-27T08:36:57.149Z,97363.34
2023-03-27T08:42:18.465Z,97372.31
2023-03-27T08:47:33.777Z,97373.44
2023-03-27T08:52:46.463Z,97375.34
2023-03-27T08:57:55.703Z,97378.97
2023-03-27T09:03:12.084Z,97383.53
2023-03-27T09:08:34.589Z,97396.16
2023-03-27T09:13:45.766Z,97399.06
2023-03-27T09:19:15.413Z,97415.66
2023-03-27T09:24:32.957Z,97419.84
2023-03-27T09:30:20.465Z,97418.72
2023-03-27T09:35:33.196Z,97423.47
2023-03-27T09:40:44.216Z,97437.09
2023-03-27T09:45:49.727Z,97430.00
2023-03-27T09:50:51.394Z,97438.47
2023-03-27T09:56:13.065Z,97443.84
2023-03-27T10:01:29.372Z,97453.78
2023-03-27T10:07:01.701Z,97457.09
2023-03-27T10:12:27.210Z,97460.47
2023-03-27T10:17:40.020Z,97452.56
2023-03-27T10:22:54.813Z,97462.78
2023-03-27T10:28:23.631Z,97462.09
2023-03-27T10:33:47.392Z,97483.03
2023-03-27T10:39:02.226Z,97489.19
2023-03-27T10:44:20.545Z,97481.47
2023-03-27T10:49:44.847Z,97480.22
2023-03-27T10:55:29.240Z,97489.56
2023-03-27T11:00:41.515Z,97492.44
2023-03-27T11:05:49.385Z,97508.03
2023-03-27T11:11:26.974Z,97512.38
2023-03-27T11:16:33.815Z,97517.22
2023-03-27T11:22:01.226Z,97522.97
2023-03-27T11:27:19.918Z,97520.00
2023-03-27T11:32:50.145Z,97529.19
2023-03-27T11:37:59.673Z,97532.22
2023-03-27T11:43:06.801Z,97531.19
2023-03-27T11:48:38.839Z,97549.22
2023-03-27T11:54:03.424Z,97543.84
2023-03-27T11:59:50.129Z,97561.28
2023-03-27T12:05:10.062Z,97557.28
2023-03-27T12:10:21.915Z,97554.72
2023-03-27T12:15:57.260Z,97565.31
2023-03-27T12:21:17.733Z,97560.00
2023-03-27T12:26:52.706Z,97551.78
2023-03-27T12:32:51.079Z,97579.81
2023-03-27T12:38:08.348Z,97595.94
2023-03-27T12:43:21.325Z,97590.28
2023-03-27T12:48:27.156Z,97589.97
2023-03-27T12:53:29.796Z,97576.78
2023-03-27T12:58:42.605Z,97586.28
2023-03-27T13:04:37.957Z,97599.72
2023-03-27T13:09:59.715Z,97608.06
2023-03-27T13:15:31.716Z,97614.44
2023-03-27T13:20:57.002Z,97603.81
2023-03-27T13:26:25.042Z,97612.63
2023-03-27T13:31:47.556Z,97611.31
2023-03-27T13:37:09.736Z,97608.72
2023-03-27T13:42:21.358Z,97599.38
2023-03-27T13:47:47.241Z,97605.34
2023-03-27T13:53:27.430Z,97591.56
2023-03-27T13:59:00.635Z,97625.88
2023-03-27T14:04:09.365Z,97617.41
2023-03-27T14:09:45.466Z,97608.53
2023-03-27T14:15:23.102Z,97622.25
2023-03-27T14:21:03.437Z,97616.16
2023-03-27T14:26:18.882Z,97610.44
2023-03-27T14:31:23.921Z,97627.38
2023-03-27T14:36:42.424Z,97617.03
2023-03-27T14:42:03.439Z,97604.81
2023-03-27T14:47:15.355Z,97637.63
2023-03-27T14:52:32.288Z,97664.06
2023-03-27T14:57:57.917Z,97708.78
2023-03-27T15:03:13.881Z,97725.16
2023-03-27T15:08:19.711Z,97725.31
2023-03-27T15:13:48.004Z,97738.25
2023-03-27T15:19:05.045Z,97694.50
2023-03-27T15:24:10.944Z,97712.59
2023-03-27T15:29:34.416Z,97718.16
2023-03-27T15:34:46.511Z,97720.81
2023-03-27T15:40:13.749Z,97734.69
2023-03-27T15:45:17.773Z,97751.66
2023-03-27T15:50:24.003Z,97720.25
2023-03-27T15:55:47.767Z,97724.06
2023-03-27T16:00:52.539Z,97723.34
2023-03-27T16:05:57.172Z,97739.47
2023-03-27T16:11:00.624Z,97739.50
2023-03-27T16:16:06.545Z,97732.25
2023-03-27T16:21:15.868Z,97740.75
2023-03-27T16:26:25.459Z,97760.31
2023-03-27T16:31:27.412Z,97769.97
2023-03-27T16:36:32.671Z,97771.97
2023-03-27T16:41:34.470Z,97780.78
2023-03-27T16:46:36.563Z,97789.69
2023-03-27T16:51:38.814Z,97787.13
2023-03-27T16:56:40.849Z,97782.19
2023-03-27T17:01:44.117Z,97794.06
2023-03-27T17:06:46.839Z,97806.13
2023-03-27T17:11:49.633Z,97816.59
2023-03-27T17:16:51.736Z,97829.78
2023-03-27T17:21:53.594Z,97815.84
2023-03-27T17:26:55.604Z,97841.84
2023-03-27T17:32:00.940Z,97837.16
2023-03-27T17:37:02.831Z,97854.75
2023-03-27T17:42:07.871Z,97862.19
2023-03-27T17:47:09.688Z,97881.06
2023-03-27T17:52:12.486Z,97882.47
2023-03-27T17:57:14.670Z,97883.06
2023-03-27T18:02:19.056Z,97885.97
2023-03-27T18:07:23.248Z,97888.88
2023-03-27T18:12:25.098Z,97897.72
2023-03-27T18:17:27.763Z,97887.94
2023-03-27T18:22:29.606Z,97899.59
2023-03-27T18:27:31.449Z,97906.38
2023-03-27T18:32:33.259Z,97906.72
2023-03-27T18:37:35.247Z,97920.25
2023-03-27T18:42:38.315Z,97919.03
2023-03-27T18:47:43.150Z,97919.78
2023-03-27T18:52:45.335Z,97921.28
2023-03-27T18:57:47.179Z,97904.81
2023-03-27T19:02:49.171Z,97915.66
2023-03-27T19:07:51.349Z,97923.53
2023-03-27T19:12:53.253Z,97920.31
2023-03-27T19:18:13.422Z,97911.56
2023-03-27T19:23:33.893Z,97907.25
2023-03-27T19:28:37.187Z,97919.88
2023-03-27T19:33:40.336Z,97928.59
2023-03-27T19:38:42.169Z,97933.91
2023-03-27T19:43:43.995Z,97934.16
2023-03-27T19:48:47.577Z,97933.41
2023-03-27T19:54:09.848Z,97937.09
2023-03-27T19:59:18.005Z,97936.63
2023-03-27T20:04:30.378Z,97934.50
2023-03-27T20:09:34.625Z,97935.81
2023-03-27T20:14:36.453Z,97943.72
2023-03-27T20:19:38.270Z,97941.09
2023-03-27T20:24:40.389Z,97932.88
2023-03-27T20:29:42.226Z,97936.56
2023-03-27T20:34:46.324Z,97940.84
2023-03-27T20:39:48.791Z,97941.22
2023-03-27T20:44:58.547Z,97941.34
2023-03-27T20:50:03.678Z,97930.50
2023-03-27T20:55:06.601Z,97933.06
2023-03-27T21:00:09.073Z,97935.50
2023-03-27T21:05:11.096Z,97933.44
2023-03-27T21:10:13.578Z,97928.75
2023-03-27T21:15:15.549Z,97931.47
2023-03-27T21:20:17.422Z,97941.47
2023-03-27T21:25:23.660Z,97923.16
2023-03-27T21:30:46.270Z,97930.34
2023-03-27T21:35:50.247Z,97927.53
2023-03-27T21:40:52.265Z,97929.78
2023-03-27T21:45:54.142Z,97939.38
2023-03-27T21:51:03.939Z,97931.81
2023-03-27T21:56:06.406Z,97936.13
2023-03-27T22:01:08.471Z,97921.94
2023-03-27T22:06:12.918Z,97925.16
2023-03-27T22:11:15.002Z,97941.25
2023-03-27T22:16:17.861Z,97931.94
2023-03-27T22:21:22.424Z,97929.78
2023-03-27T22:26:27.164Z,97943.72
2023-03-27T22:31:29.471Z,97939.97
2023-03-27T22:36:32.425Z,97943.56
2023-03-27T22:41:34.236Z,97949.78
2023-03-27T22:46:36.542Z,97958.25
2023-03-27T22:51:38.400Z,97953.88
2023-03-27T22:56:40.348Z,97963.78
2023-03-27T23:01:42.183Z,97967.25
2023-03-27T23:06:44.017Z,97965.63
2023-03-27T23:11:47.158Z,97973.28
2023-03-27T23:16:51.410Z,97971.22
2023-03-27T23:21:53.247Z,97976.94
2023-03-27T23:26:55.061Z,97981.78
2023-03-27T23:31:57.139Z,97980.31
2023-03-27T23:36:59.808Z,97998.94
2023-03-27T23:42:01.767Z,97983.97
2023-03-27T23:47:03.904Z,97983.53
2023-03-27T23:52:05.959Z,97987.16
2023-03-27T23:57:07.969Z,97983.28
